PIMOHWEATHER Station Historical Data
Daily Summary for July 29, 2020 Units:  Metric    English   Both
Daily Weekly Monthly Yearly
  High: Low: Average:
Temperature: 29.0 °C 25.0 °C 26.8 °C
Dew Point: 25.0 °C 23.0 °C 24.5 °C
Humidity: 95% 77% 87%
Wind Speed: 19km/h 0km/h 7.4km/h
Wind Gust: 24km/h - -
Wind- - ESE
Pressure: 1011.3 hPa 1007.0 hPa -
Precipitation: 31.80 mm    
 
 
Tabular Data for July 29, 2020
Time Temperature Dew Point Pressure Wind Wind Speed Wind Gust Humidity Rainfall Rate (Hourly) solar
00:04 26.0 °C 24.0 °C 1011.2 hPa NNW 12 km/h 16 km/h 89% 0.00 mm 0.00 W/m2
00:09 26.0 °C 24.0 °C 1011.2 hPa NNW 10 km/h 12 km/h 89% 0.00 mm 0.00 W/m2
00:14 26.0 °C 24.0 °C 1011.2 hPa North 7 km/h 8 km/h 89% 0.00 mm 0.00 W/m2
00:19 26.0 °C 24.0 °C 1011.2 hPa NW 10 km/h 16 km/h 89% 0.00 mm 0.00 W/m2
00:24 26.0 °C 24.0 °C 1011.3 hPa NNW 6 km/h 8 km/h 89% 1.80 mm 0.00 W/m2
00:29 26.0 °C 24.0 °C 1011.3 hPa NNW 8 km/h 8 km/h 89% 1.80 mm 0.00 W/m2
00:34 26.0 °C 24.0 °C 1011.2 hPa NW 9 km/h 12 km/h 89% 1.80 mm 0.00 W/m2
00:39 26.0 °C 24.0 °C 1011.1 hPa NW 8 km/h 12 km/h 89% 0.00 mm 0.00 W/m2
00:44 26.0 °C 24.0 °C 1010.9 hPa NNW 8 km/h 8 km/h 89% 0.00 mm 0.00 W/m2
00:48 26.0 °C 24.0 °C 1010.7 hPa Calm     89% 0.00 mm 0.00 W/m2
00:54 26.0 °C 24.0 °C 1010.6 hPa NNW 9 km/h 12 km/h 89% 0.00 mm 0.00 W/m2
00:59 26.0 °C 24.0 °C 1010.6 hPa NNW 11 km/h 12 km/h 90% 0.00 mm 0.00 W/m2
01:04 26.0 °C 24.0 °C 1010.4 hPa NNW 10 km/h 12 km/h 90% 0.00 mm 0.00 W/m2
01:09 26.0 °C 24.0 °C 1010.4 hPa NNE 6 km/h 8 km/h 91% 0.00 mm 0.00 W/m2
01:14 26.0 °C 24.0 °C 1010.4 hPa NNE 5 km/h 8 km/h 91% 0.00 mm 0.00 W/m2
01:19 26.0 °C 24.0 °C 1010.4 hPa NNE 8 km/h 8 km/h 91% 0.00 mm 0.00 W/m2
01:24 26.0 °C 24.0 °C 1010.4 hPa NNE 6 km/h 8 km/h 91% 0.00 mm 0.00 W/m2
01:29 26.0 °C 24.0 °C 1010.4 hPa NNE 8 km/h 8 km/h 91% 1.80 mm 0.00 W/m2
01:34 26.0 °C 24.0 °C 1010.3 hPa NNE 10 km/h 12 km/h 91% 1.80 mm 0.00 W/m2
01:39 26.0 °C 24.0 °C 1010.4 hPa North 13 km/h 16 km/h 91% 1.80 mm 0.00 W/m2
01:44 26.0 °C 24.0 °C 1010.3 hPa North 13 km/h 16 km/h 91% 0.00 mm 0.00 W/m2
01:49 26.0 °C 24.0 °C 1010.0 hPa North 10 km/h 12 km/h 91% 0.00 mm 0.00 W/m2
01:54 26.0 °C 24.0 °C 1010.1 hPa North 8 km/h 8 km/h 91% 0.00 mm 0.00 W/m2
01:59 26.0 °C 24.0 °C 1010.2 hPa North 10 km/h 12 km/h 91% 0.00 mm 0.00 W/m2
02:04 26.0 °C 24.0 °C 1010.0 hPa NNE 13 km/h 16 km/h 91% 0.00 mm 0.00 W/m2
02:09 26.0 °C 24.0 °C 1010.1 hPa NNE 15 km/h 16 km/h 90% 0.00 mm 0.00 W/m2
02:14 26.0 °C 24.0 °C 1010.1 hPa NNE 10 km/h 12 km/h 90% 0.00 mm 0.00 W/m2
02:19 26.0 °C 24.0 °C 1009.9 hPa NE 5 km/h 8 km/h 91% 0.00 mm 0.00 W/m2
02:24 26.0 °C 24.0 °C 1009.9 hPa NNE 11 km/h 12 km/h 90% 0.00 mm 0.00 W/m2
02:26 26.0 °C 24.0 °C 1009.9 hPa NNE 10 km/h 16 km/h 90% 0.00 mm 0.00 W/m2
02:32 26.0 °C 24.0 °C 1009.9 hPa NE 6 km/h 8 km/h 90% 0.00 mm 0.00 W/m2
02:39 26.0 °C 24.0 °C 1010.0 hPa NNE 10 km/h 12 km/h 91% 0.00 mm 0.00 W/m2
02:44 26.0 °C 24.0 °C 1009.9 hPa NNE 17 km/h 24 km/h 91% 0.00 mm 0.00 W/m2
02:49 26.0 °C 24.0 °C 1009.9 hPa NNE 19 km/h 24 km/h 91% 0.00 mm 0.00 W/m2
02:54 26.0 °C 24.0 °C 1010.0 hPa NNE 17 km/h 24 km/h 91% 0.00 mm 0.00 W/m2
02:59 26.0 °C 24.0 °C 1009.9 hPa NNE 15 km/h 20 km/h 90% 0.00 mm 0.00 W/m2
03:04 26.0 °C 24.0 °C 1009.9 hPa NNE 16 km/h 24 km/h 90% 0.00 mm 0.00 W/m2
03:09 26.0 °C 24.0 °C 1010.1 hPa NNE 15 km/h 20 km/h 90% 0.00 mm 0.00 W/m2
03:14 26.0 °C 24.0 °C 1009.8 hPa NNE 13 km/h 16 km/h 90% 0.00 mm 0.00 W/m2
03:19 26.0 °C 24.0 °C 1010.0 hPa NNE 8 km/h 12 km/h 90% 0.00 mm 0.00 W/m2
03:24 26.0 °C 24.0 °C 1009.9 hPa NNE 10 km/h 12 km/h 90% 0.00 mm 0.00 W/m2
03:29 26.0 °C 24.0 °C 1009.9 hPa NE 12 km/h 20 km/h 89% 0.00 mm 0.00 W/m2
03:34 26.0 °C 24.0 °C 1009.8 hPa NNE 12 km/h 16 km/h 89% 0.00 mm 0.00 W/m2
03:39 26.0 °C 24.0 °C 1009.8 hPa NNE 9 km/h 12 km/h 88% 0.00 mm 0.00 W/m2
03:44 26.0 °C 24.0 °C 1009.8 hPa NNE 15 km/h 16 km/h 88% 0.00 mm 0.00 W/m2
03:49 26.0 °C 24.0 °C 1009.6 hPa NNE 13 km/h 16 km/h 88% 0.00 mm 0.00 W/m2
03:54 26.0 °C 24.0 °C 1009.6 hPa NNE 11 km/h 16 km/h 88% 0.00 mm 0.00 W/m2
03:59 26.0 °C 24.0 °C 1009.5 hPa NNE 14 km/h 20 km/h 87% 0.00 mm 0.00 W/m2
04:04 26.0 °C 24.0 °C 1009.5 hPa NNE 13 km/h 16 km/h 87% 0.00 mm 0.00 W/m2
04:09 26.0 °C 24.0 °C 1009.5 hPa NNE 14 km/h 16 km/h 87% 0.00 mm 0.00 W/m2
04:10 26.0 °C 24.0 °C 1009.5 hPa NNE 4 km/h 8 km/h 87% 0.00 mm 0.00 W/m2
04:19 26.0 °C 24.0 °C 1009.1 hPa NNE 8 km/h 8 km/h 88% 0.00 mm 0.00 W/m2
04:24 26.0 °C 24.0 °C 1009.2 hPa NNE 14 km/h 16 km/h 89% 1.80 mm 0.00 W/m2
04:29 26.0 °C 24.0 °C 1009.2 hPa North 10 km/h 12 km/h 89% 1.80 mm 0.00 W/m2
04:34 26.0 °C 24.0 °C 1009.2 hPa NNE 9 km/h 12 km/h 89% 1.80 mm 0.00 W/m2
04:39 26.0 °C 24.0 °C 1009.1 hPa NNE 10 km/h 12 km/h 89% 0.00 mm 0.00 W/m2
04:44 26.0 °C 24.0 °C 1009.0 hPa NE 9 km/h 12 km/h 89% 1.80 mm 0.00 W/m2
04:49 26.0 °C 24.0 °C 1008.8 hPa NNE 13 km/h 16 km/h 89% 1.80 mm 0.00 W/m2
04:54 26.0 °C 24.0 °C 1008.8 hPa NNE 9 km/h 12 km/h 89% 1.80 mm 0.00 W/m2
04:59 26.0 °C 24.0 °C 1008.8 hPa NNE 11 km/h 16 km/h 89% 0.00 mm 0.00 W/m2
05:04 26.0 °C 24.0 °C 1008.7 hPa NNE 10 km/h 12 km/h 89% 0.00 mm 0.00 W/m2
05:09 26.0 °C 24.0 °C 1008.7 hPa NNE 12 km/h 16 km/h 89% 0.00 mm 0.00 W/m2
05:14 26.0 °C 24.0 °C 1008.8 hPa NNE 14 km/h 16 km/h 89% 0.00 mm 0.00 W/m2
05:19 26.0 °C 24.0 °C 1008.7 hPa North 14 km/h 16 km/h 89% 0.00 mm 0.00 W/m2
05:24 26.0 °C 23.0 °C 1008.7 hPa North 14 km/h 20 km/h 88% 0.00 mm 0.00 W/m2
05:29 26.0 °C 24.0 °C 1008.7 hPa NNE 8 km/h 12 km/h 89% 0.00 mm 0.00 W/m2
05:34 26.0 °C 24.0 °C 1009.0 hPa NE 6 km/h 8 km/h 89% 0.00 mm 0.00 W/m2
05:39 26.0 °C 24.0 °C 1008.9 hPa NNE 8 km/h 8 km/h 89% 0.00 mm 0.00 W/m2
05:44 26.0 °C 24.0 °C 1009.0 hPa NNE 8 km/h 8 km/h 89% 0.00 mm 1.22 W/m2
05:49 26.0 °C 24.0 °C 1009.0 hPa NNE 6 km/h 8 km/h 89% 0.00 mm 3.43 W/m2
05:54 26.0 °C 24.0 °C 1008.9 hPa NNE 3 km/h 4 km/h 89% 0.00 mm 5.14 W/m2
06:04 26.0 °C 24.0 °C 1009.1 hPa NNE 5 km/h 8 km/h 88% 0.00 mm 8.56 W/m2
06:09 26.0 °C 24.0 °C 1009.4 hPa NNE 5 km/h 8 km/h 88% 0.00 mm 11.25 W/m2
06:14 26.0 °C 24.0 °C 1009.3 hPa Calm     89% 0.00 mm 11.62 W/m2
06:19 26.0 °C 24.0 °C 1009.5 hPa Calm     89% 0.00 mm 13.33 W/m2
06:24 26.0 °C 24.0 °C 1009.6 hPa Calm     88% 0.00 mm 14.31 W/m2
06:29 26.0 °C 24.0 °C 1009.8 hPa Calm     88% 0.00 mm 15.53 W/m2
06:34 26.0 °C 24.0 °C 1009.7 hPa Calm     87% 0.00 mm 16.02 W/m2
06:39 26.0 °C 24.0 °C 1009.8 hPa Calm     88% 0.00 mm 16.39 W/m2
06:44 26.0 °C 24.0 °C 1009.8 hPa NNE 5 km/h 8 km/h 88% 0.00 mm 16.02 W/m2
06:49 26.0 °C 24.0 °C 1009.9 hPa Calm     88% 0.00 mm 16.02 W/m2
06:54 26.0 °C 24.0 °C 1010.0 hPa NNE 4 km/h 4 km/h 88% 0.00 mm 15.53 W/m2
06:59 26.0 °C 24.0 °C 1010.1 hPa NNE 8 km/h 8 km/h 88% 0.00 mm 15.17 W/m2
07:04 26.0 °C 24.0 °C 1010.1 hPa NNE 9 km/h 12 km/h 88% 0.00 mm 14.68 W/m2
07:09 26.0 °C 24.0 °C 1010.2 hPa NNE 9 km/h 12 km/h 89% 0.00 mm 14.31 W/m2
07:14 26.0 °C 24.0 °C 1010.2 hPa North 9 km/h 12 km/h 89% 1.80 mm 14.31 W/m2
07:19 26.0 °C 24.0 °C 1010.2 hPa North 8 km/h 8 km/h 90% 3.61 mm 16.88 W/m2
07:24 26.0 °C 24.0 °C 1010.3 hPa NNE 8 km/h 8 km/h 90% 3.61 mm 18.60 W/m2
07:29 26.0 °C 24.0 °C 1010.3 hPa NNE 6 km/h 8 km/h 90% 3.61 mm 20.31 W/m2
07:34 26.0 °C 24.0 °C 1010.4 hPa NE 8 km/h 8 km/h 91% 3.61 mm 22.02 W/m2
07:39 26.0 °C 24.0 °C 1010.4 hPa NNE 4 km/h 4 km/h 91% 3.61 mm 22.87 W/m2
07:44 26.0 °C 24.0 °C 1010.6 hPa NNE 4 km/h 4 km/h 91% 3.61 mm 24.71 W/m2
07:49 26.0 °C 24.0 °C 1010.5 hPa Calm     91% 1.80 mm 25.56 W/m2
07:54 26.0 °C 24.0 °C 1010.5 hPa NE 1 km/h 4 km/h 91% 1.80 mm 28.63 W/m2
07:59 26.0 °C 24.0 °C 1010.7 hPa Calm     91% 1.80 mm 30.70 W/m2
08:04 26.0 °C 24.0 °C 1010.5 hPa Calm     90% 1.80 mm 34.25 W/m2
08:09 26.0 °C 24.0 °C 1010.6 hPa NE 4 km/h 4 km/h 90% 1.80 mm 39.39 W/m2
08:14 26.0 °C 24.0 °C 1010.6 hPa Calm     91% 1.80 mm 48.93 W/m2
08:19 26.0 °C 24.0 °C 1010.6 hPa Calm     90% 1.80 mm 57.62 W/m2
08:24 26.0 °C 24.0 °C 1010.7 hPa Calm     90% 1.80 mm 68.87 W/m2
08:29 26.0 °C 24.0 °C 1010.8 hPa Calm     90% 1.80 mm 82.33 W/m2
08:34 26.0 °C 24.0 °C 1010.7 hPa Calm     89% 1.80 mm 95.42 W/m2
08:39 26.0 °C 24.0 °C 1010.8 hPa Calm     89% 1.80 mm 108.88 W/m2
08:44 26.0 °C 24.0 °C 1010.7 hPa Calm     89% 0.00 mm 120.13 W/m2
08:49 27.0 °C 25.0 °C 1010.7 hPa Calm     88% 0.00 mm 125.27 W/m2
08:54 27.0 °C 25.0 °C 1010.7 hPa NE 1 km/h 4 km/h 88% 0.00 mm 129.19 W/m2
08:59 27.0 °C 25.0 °C 1010.8 hPa NE 1 km/h 4 km/h 87% 0.00 mm 130.04 W/m2
09:04 27.0 °C 25.0 °C 1010.8 hPa ENE 5 km/h 8 km/h 87% 0.00 mm 127.96 W/m2
09:09 27.0 °C 24.0 °C 1010.6 hPa ENE 6 km/h 8 km/h 88% 0.00 mm 122.34 W/m2
09:14 27.0 °C 24.0 °C 1010.7 hPa ENE 4 km/h 4 km/h 88% 0.00 mm 116.58 W/m2
09:19 27.0 °C 25.0 °C 1010.7 hPa ENE 1 km/h 4 km/h 88% 0.00 mm 113.16 W/m2
09:24 27.0 °C 25.0 °C 1010.6 hPa Calm     88% 0.00 mm 109.24 W/m2
09:29 27.0 °C 25.0 °C 1010.6 hPa Calm     88% 0.00 mm 101.41 W/m2
09:34 27.0 °C 25.0 °C 1010.6 hPa ENE 3 km/h 4 km/h 87% 0.00 mm 94.93 W/m2
09:39 27.0 °C 25.0 °C 1010.7 hPa Calm     87% 0.00 mm 92.73 W/m2
09:44 27.0 °C 25.0 °C 1010.6 hPa ENE 4 km/h 4 km/h 87% 0.00 mm 96.65 W/m2
09:49 27.0 °C 25.0 °C 1010.8 hPa Calm     86% 0.00 mm 98.85 W/m2
09:54 27.0 °C 25.0 °C 1010.7 hPa ENE 4 km/h 4 km/h 86% 0.00 mm 98.36 W/m2
09:59 27.0 °C 25.0 °C 1010.7 hPa ENE 3 km/h 4 km/h 87% 0.00 mm 96.65 W/m2
10:04 27.0 °C 25.0 °C 1010.7 hPa ENE 4 km/h 4 km/h 87% 0.00 mm 97.99 W/m2
10:09 27.0 °C 25.0 °C 1010.6 hPa ENE 6 km/h 8 km/h 88% 0.00 mm 101.90 W/m2
10:14 27.0 °C 25.0 °C 1010.7 hPa ENE 4 km/h 4 km/h 88% 0.00 mm 101.90 W/m2
10:19 27.0 °C 25.0 °C 1010.7 hPa ENE 3 km/h 4 km/h 88% 0.00 mm 98.85 W/m2
10:24 27.0 °C 25.0 °C 1010.5 hPa ENE 1 km/h 4 km/h 88% 0.00 mm 96.27 W/m2
10:29 27.0 °C 25.0 °C 1010.4 hPa ENE 5 km/h 8 km/h 88% 0.00 mm 90.16 W/m2
10:34 27.0 °C 25.0 °C 1010.4 hPa ENE 4 km/h 4 km/h 88% 0.00 mm 95.79 W/m2
10:39 27.0 °C 25.0 °C 1010.2 hPa ENE 4 km/h 4 km/h 88% 0.00 mm 94.93 W/m2
10:44 27.0 °C 25.0 °C 1010.1 hPa ENE 6 km/h 8 km/h 88% 0.00 mm 91.02 W/m2
10:49 27.0 °C 25.0 °C 1010.2 hPa ENE 4 km/h 4 km/h 89% 0.00 mm 88.45 W/m2
10:54 27.0 °C 25.0 °C 1010.1 hPa Calm   4 km/h 88% 0.00 mm 84.04 W/m2
10:59 27.0 °C 25.0 °C 1010.2 hPa ENE 4 km/h 4 km/h 88% 0.00 mm 90.16 W/m2
11:04 27.0 °C 25.0 °C 1010.3 hPa ENE 6 km/h 8 km/h 87% 0.00 mm 94.07 W/m2
11:09 27.0 °C 25.0 °C 1010.3 hPa ENE 5 km/h 8 km/h 87% 0.00 mm 97.13 W/m2
11:14 27.0 °C 24.0 °C 1010.2 hPa ENE 4 km/h 4 km/h 85% 0.00 mm 97.99 W/m2
11:19 27.0 °C 24.0 °C 1010.1 hPa ENE 6 km/h 8 km/h 85% 0.00 mm 97.50 W/m2
11:24 27.0 °C 25.0 °C 1009.9 hPa ENE 3 km/h 4 km/h 85% 0.00 mm 102.76 W/m2
11:29 27.0 °C 25.0 °C 1009.8 hPa Calm     85% 0.00 mm 105.82 W/m2
11:34 27.0 °C 25.0 °C 1009.6 hPa ENE 4 km/h 8 km/h 85% 0.00 mm 110.59 W/m2
11:39 27.0 °C 25.0 °C 1009.5 hPa ENE 3 km/h 4 km/h 84% 0.00 mm 113.16 W/m2
11:44 27.0 °C 25.0 °C 1009.5 hPa ENE 3 km/h 4 km/h 84% 0.00 mm 113.16 W/m2
11:49 27.0 °C 25.0 °C 1009.5 hPa ENE 4 km/h 4 km/h 84% 0.00 mm 111.44 W/m2
11:54 28.0 °C 25.0 °C 1009.3 hPa ENE 6 km/h 8 km/h 84% 0.00 mm 114.87 W/m2
11:59 28.0 °C 25.0 °C 1009.4 hPa ENE 4 km/h 4 km/h 84% 0.00 mm 117.07 W/m2
12:04 27.0 °C 25.0 °C 1009.4 hPa ENE 4 km/h 4 km/h 84% 0.00 mm 121.85 W/m2
12:09 27.0 °C 24.0 °C 1009.1 hPa ENE 4 km/h 4 km/h 84% 0.00 mm 127.96 W/m2
12:14 28.0 °C 25.0 °C 1009.0 hPa ENE 4 km/h 4 km/h 84% 0.00 mm 126.12 W/m2
12:19 28.0 °C 24.0 °C 1008.9 hPa ENE 3 km/h 4 km/h 83% 0.00 mm 124.41 W/m2
12:24 28.0 °C 25.0 °C 1008.9 hPa Calm   4 km/h 83% 0.00 mm 111.44 W/m2
12:29 28.0 °C 25.0 °C 1008.8 hPa ENE 3 km/h 4 km/h 83% 0.00 mm 111.82 W/m2
12:34 28.0 °C 25.0 °C 1008.8 hPa Calm     84% 0.00 mm 112.30 W/m2
12:39 28.0 °C 25.0 °C 1008.8 hPa ENE 3 km/h 4 km/h 84% 0.00 mm 104.48 W/m2
12:44 28.0 °C 25.0 °C 1008.8 hPa ENE 4 km/h 4 km/h 84% 0.00 mm 94.93 W/m2
12:49 28.0 °C 25.0 °C 1008.7 hPa ENE 4 km/h 4 km/h 84% 0.00 mm 99.70 W/m2
12:54 28.0 °C 25.0 °C 1008.6 hPa ENE 5 km/h 8 km/h 85% 0.00 mm 94.56 W/m2
12:59 28.0 °C 25.0 °C 1008.4 hPa Calm     85% 0.00 mm 92.36 W/m2
13:04 28.0 °C 25.0 °C 1008.4 hPa Calm     85% 1.80 mm 112.67 W/m2
13:09 28.0 °C 25.0 °C 1008.4 hPa ENE 4 km/h 4 km/h 85% 1.80 mm 112.67 W/m2
13:14 28.0 °C 25.0 °C 1008.1 hPa ENE 4 km/h 4 km/h 85% 1.80 mm 114.51 W/m2
13:19 28.0 °C 25.0 °C 1007.9 hPa ENE 1 km/h 4 km/h 86% 0.00 mm 114.87 W/m2
13:24 28.0 °C 25.0 °C 1007.9 hPa ENE 6 km/h 8 km/h 86% 0.00 mm 136.16 W/m2
13:29 28.0 °C 25.0 °C 1007.9 hPa ENE 6 km/h 8 km/h 86% 1.80 mm 145.70 W/m2
13:34 28.0 °C 25.0 °C 1007.9 hPa ENE 2 km/h 4 km/h 86% 1.80 mm 149.98 W/m2
13:39 28.0 °C 25.0 °C 1007.8 hPa Calm     86% 1.80 mm 161.73 W/m2
13:44 28.0 °C 25.0 °C 1008.0 hPa Calm     86% 0.00 mm 172.12 W/m2
13:49 28.0 °C 25.0 °C 1008.0 hPa East 4 km/h 4 km/h 86% 0.00 mm 172.61 W/m2
13:54 28.0 °C 25.0 °C 1007.9 hPa ENE 4 km/h 4 km/h 85% 0.00 mm 169.07 W/m2
13:59 28.0 °C 25.0 °C 1007.8 hPa East 8 km/h 8 km/h 84% 0.00 mm 164.29 W/m2
14:04 28.0 °C 25.0 °C 1007.7 hPa East 7 km/h 8 km/h 84% 0.00 mm 171.27 W/m2
14:09 28.0 °C 25.0 °C 1007.6 hPa East 4 km/h 4 km/h 84% 0.00 mm 189.13 W/m2
14:14 28.0 °C 25.0 °C 1007.6 hPa Calm     83% 0.00 mm 216.90 W/m2
14:19 28.0 °C 24.0 °C 1007.6 hPa Calm     81% 0.00 mm 233.29 W/m2
14:24 28.0 °C 24.0 °C 1007.5 hPa Calm     81% 0.00 mm 248.10 W/m2
14:29 28.0 °C 25.0 °C 1007.4 hPa Calm   4 km/h 82% 0.00 mm 253.24 W/m2
14:34 28.0 °C 25.0 °C 1007.3 hPa SSE 10 km/h 12 km/h 81% 0.00 mm 255.07 W/m2
14:39 28.0 °C 25.0 °C 1007.3 hPa SSE 11 km/h 12 km/h 81% 0.00 mm 255.07 W/m2
14:44 28.0 °C 25.0 °C 1007.3 hPa SSE 5 km/h 8 km/h 80% 0.00 mm 254.21 W/m2
14:49 28.0 °C 25.0 °C 1007.2 hPa SSE 9 km/h 12 km/h 80% 0.00 mm 257.64 W/m2
14:54 29.0 °C 25.0 °C 1007.1 hPa SSE 8 km/h 12 km/h 79% 0.00 mm 266.69 W/m2
14:59 29.0 °C 24.0 °C 1007.2 hPa SSE 5 km/h 8 km/h 78% 0.00 mm 267.55 W/m2
15:04 29.0 °C 24.0 °C 1007.2 hPa SSE 11 km/h 12 km/h 77% 0.00 mm 253.73 W/m2
15:09 29.0 °C 24.0 °C 1007.3 hPa SSW 18 km/h 20 km/h 77% 0.00 mm 256.29 W/m2
15:14 29.0 °C 24.0 °C 1007.4 hPa SE 5 km/h 8 km/h 77% 0.00 mm 213.35 W/m2
15:19 29.0 °C 25.0 °C 1007.4 hPa South 8 km/h 8 km/h 78% 0.00 mm 213.35 W/m2
15:24 29.0 °C 25.0 °C 1007.4 hPa SSW 7 km/h 8 km/h 80% 0.00 mm 198.18 W/m2
15:29 29.0 °C 25.0 °C 1007.3 hPa SW 18 km/h 20 km/h 81% 0.00 mm 188.27 W/m2
15:34 29.0 °C 25.0 °C 1007.3 hPa SSW 18 km/h 20 km/h 81% 0.00 mm 186.93 W/m2
15:39 29.0 °C 25.0 °C 1007.1 hPa SW 9 km/h 12 km/h 81% 0.00 mm 169.56 W/m2
15:44 29.0 °C 25.0 °C 1007.3 hPa SW 12 km/h 12 km/h 81% 0.00 mm 156.95 W/m2
15:49 29.0 °C 25.0 °C 1007.0 hPa SW 10 km/h 12 km/h 80% 0.00 mm 153.04 W/m2
15:54 29.0 °C 25.0 °C 1007.2 hPa WSW 13 km/h 16 km/h 81% 0.00 mm 157.44 W/m2
15:59 29.0 °C 25.0 °C 1007.1 hPa WSW 12 km/h 16 km/h 80% 0.00 mm 188.64 W/m2
16:04 29.0 °C 25.0 °C 1007.1 hPa SW 10 km/h 12 km/h 80% 0.00 mm 191.21 W/m2
16:09 29.0 °C 25.0 °C 1007.2 hPa SW 11 km/h 16 km/h 80% 0.00 mm 157.81 W/m2
16:14 29.0 °C 25.0 °C 1007.1 hPa WSW 14 km/h 16 km/h 80% 0.00 mm 146.56 W/m2
16:19 29.0 °C 25.0 °C 1007.1 hPa SW 12 km/h 16 km/h 80% 0.00 mm 147.41 W/m2
16:24 29.0 °C 25.0 °C 1007.0 hPa SW 13 km/h 16 km/h 79% 0.00 mm 153.90 W/m2
16:29 29.0 °C 25.0 °C 1007.0 hPa SW 11 km/h 16 km/h 80% 0.00 mm 146.19 W/m2
16:34 29.0 °C 25.0 °C 1007.0 hPa SW 14 km/h 16 km/h 79% 0.00 mm 134.44 W/m2
16:39 29.0 °C 25.0 °C 1007.0 hPa SW 13 km/h 20 km/h 79% 0.00 mm 124.90 W/m2
16:44 29.0 °C 25.0 °C 1007.1 hPa SSW 14 km/h 16 km/h 79% 0.00 mm 125.76 W/m2
16:49 29.0 °C 25.0 °C 1007.1 hPa SSW 12 km/h 16 km/h 79% 0.00 mm 124.05 W/m2
16:54 29.0 °C 25.0 °C 1007.1 hPa SW 12 km/h 16 km/h 79% 0.00 mm 124.41 W/m2
16:59 29.0 °C 25.0 °C 1007.3 hPa SSW 15 km/h 16 km/h 79% 0.00 mm 117.44 W/m2
17:04 29.0 °C 25.0 °C 1007.4 hPa South 18 km/h 20 km/h 79% 0.00 mm 90.65 W/m2
17:09 29.0 °C 25.0 °C 1007.4 hPa SSW 9 km/h 12 km/h 79% 0.00 mm 75.85 W/m2
17:14 29.0 °C 25.0 °C 1007.3 hPa SSW 8 km/h 12 km/h 79% 0.00 mm 64.96 W/m2
17:19 29.0 °C 25.0 °C 1007.4 hPa South 11 km/h 12 km/h 79% 0.00 mm 51.50 W/m2
17:24 29.0 °C 25.0 °C 1007.4 hPa South 10 km/h 12 km/h 79% 0.00 mm 39.88 W/m2
17:29 29.0 °C 25.0 °C 1007.4 hPa South 5 km/h 8 km/h 79% 0.00 mm 34.62 W/m2
17:34 29.0 °C 25.0 °C 1007.4 hPa South 9 km/h 12 km/h 79% 0.00 mm 31.19 W/m2
17:39 29.0 °C 25.0 °C 1007.3 hPa South 11 km/h 12 km/h 79% 0.00 mm 30.70 W/m2
17:44 29.0 °C 25.0 °C 1007.5 hPa South 10 km/h 12 km/h 79% 0.00 mm 27.28 W/m2
17:49 29.0 °C 25.0 °C 1007.6 hPa SW 9 km/h 12 km/h 80% 0.00 mm 24.22 W/m2
17:54 29.0 °C 25.0 °C 1007.7 hPa SW 6 km/h 8 km/h 80% 0.00 mm 21.16 W/m2
17:59 28.0 °C 25.0 °C 1007.8 hPa SW 5 km/h 8 km/h 80% 0.00 mm 19.08 W/m2
18:04 28.0 °C 25.0 °C 1007.7 hPa SW 8 km/h 12 km/h 80% 0.00 mm 15.17 W/m2
18:09 28.0 °C 25.0 °C 1007.7 hPa SW 5 km/h 8 km/h 80% 0.00 mm 10.77 W/m2
18:14 28.0 °C 25.0 °C 1007.9 hPa SSW 9 km/h 12 km/h 80% 0.00 mm 7.34 W/m2
18:19 28.0 °C 25.0 °C 1007.9 hPa SSW 8 km/h 12 km/h 80% 0.00 mm 3.79 W/m2
18:24 28.0 °C 25.0 °C 1007.9 hPa South 8 km/h 8 km/h 80% 0.00 mm 1.22 W/m2
18:29 28.0 °C 25.0 °C 1008.1 hPa SSW 8 km/h 8 km/h 80% 0.00 mm 0.00 W/m2
18:34 28.0 °C 25.0 °C 1008.1 hPa SSW 8 km/h 12 km/h 80% 0.00 mm 0.00 W/m2
18:39 28.0 °C 25.0 °C 1008.0 hPa South 8 km/h 8 km/h 80% 0.00 mm 0.00 W/m2
18:44 28.0 °C 25.0 °C 1008.1 hPa South 5 km/h 8 km/h 80% 0.00 mm 0.00 W/m2
18:49 28.0 °C 25.0 °C 1008.1 hPa South 5 km/h 8 km/h 80% 0.00 mm 0.00 W/m2
18:54 28.0 °C 25.0 °C 1008.1 hPa Calm     80% 0.00 mm 0.00 W/m2
18:59 28.0 °C 25.0 °C 1008.2 hPa ESE 3 km/h 4 km/h 81% 0.00 mm 0.00 W/m2
19:04 28.0 °C 25.0 °C 1008.4 hPa ESE 13 km/h 16 km/h 81% 0.00 mm 0.00 W/m2
19:09 28.0 °C 25.0 °C 1008.6 hPa ESE 12 km/h 24 km/h 83% 0.00 mm 0.00 W/m2
19:14 28.0 °C 25.0 °C 1008.5 hPa SE 10 km/h 12 km/h 85% 0.00 mm 0.00 W/m2
19:19 27.0 °C 25.0 °C 1008.5 hPa SSE 13 km/h 16 km/h 86% 0.00 mm 0.00 W/m2
19:24 27.0 °C 24.0 °C 1008.7 hPa South 10 km/h 12 km/h 87% 0.00 mm 0.00 W/m2
19:29 27.0 °C 25.0 °C 1008.9 hPa SSE 5 km/h 8 km/h 87% 0.00 mm 0.00 W/m2
19:34 27.0 °C 25.0 °C 1009.1 hPa NE 17 km/h 20 km/h 89% 0.00 mm 0.00 W/m2
19:39 26.0 °C 25.0 °C 1009.2 hPa North 17 km/h 20 km/h 89% 1.80 mm 0.00 W/m2
19:44 26.0 °C 24.0 °C 1009.2 hPa NNW 17 km/h 20 km/h 93% 12.60 mm 0.00 W/m2
19:49 26.0 °C 24.0 °C 1009.0 hPa South 13 km/h 16 km/h 93% 14.40 mm 0.00 W/m2
19:54 26.0 °C 24.0 °C 1009.0 hPa South 9 km/h 12 km/h 93% 12.60 mm 0.00 W/m2
19:59 26.0 °C 24.0 °C 1009.0 hPa South 3 km/h 4 km/h 92% 1.80 mm 0.00 W/m2
20:04 26.0 °C 24.0 °C 1009.0 hPa South 14 km/h 16 km/h 91% 0.00 mm 0.00 W/m2
20:09 26.0 °C 24.0 °C 1009.2 hPa South 14 km/h 16 km/h 89% 0.00 mm 0.00 W/m2
20:14 26.0 °C 24.0 °C 1009.2 hPa South 14 km/h 20 km/h 89% 0.00 mm 0.00 W/m2
20:19 26.0 °C 24.0 °C 1009.2 hPa SSE 10 km/h 12 km/h 90% 0.00 mm 0.00 W/m2
20:24 26.0 °C 25.0 °C 1009.5 hPa South 10 km/h 12 km/h 91% 1.80 mm 0.00 W/m2
20:29 26.0 °C 24.0 °C 1009.4 hPa South 16 km/h 20 km/h 91% 1.80 mm 0.00 W/m2
20:34 26.0 °C 24.0 °C 1009.4 hPa SSE 9 km/h 12 km/h 91% 1.80 mm 0.00 W/m2
20:39 26.0 °C 24.0 °C 1009.4 hPa SSE 8 km/h 8 km/h 91% 0.00 mm 0.00 W/m2
20:40 26.0 °C 24.0 °C 1009.4 hPa Calm     91% 0.00 mm 0.00 W/m2
20:49 26.0 °C 25.0 °C 1009.4 hPa SSE 4 km/h 8 km/h 92% 1.80 mm 0.00 W/m2
20:54 26.0 °C 25.0 °C 1009.4 hPa SSE 5 km/h 8 km/h 93% 7.19 mm 0.00 W/m2
20:59 26.0 °C 25.0 °C 1009.4 hPa SE 14 km/h 20 km/h 93% 10.80 mm 0.00 W/m2
21:04 26.0 °C 25.0 °C 1009.3 hPa SSE 15 km/h 20 km/h 93% 10.80 mm 0.00 W/m2
21:09 26.0 °C 25.0 °C 1009.3 hPa SSE 15 km/h 16 km/h 94% 8.99 mm 0.00 W/m2
21:14 26.0 °C 24.0 °C 1009.4 hPa SE 13 km/h 20 km/h 93% 7.19 mm 0.00 W/m2
21:19 26.0 °C 25.0 °C 1009.4 hPa SE 5 km/h 8 km/h 94% 5.41 mm 0.00 W/m2
21:24 26.0 °C 25.0 °C 1009.4 hPa SSE 11 km/h 12 km/h 94% 5.41 mm 0.00 W/m2
21:29 26.0 °C 24.0 °C 1009.4 hPa South 10 km/h 12 km/h 93% 3.61 mm 0.00 W/m2
21:34 26.0 °C 24.0 °C 1009.4 hPa SSE 12 km/h 12 km/h 93% 3.61 mm 0.00 W/m2
21:39 26.0 °C 24.0 °C 1009.4 hPa SE 12 km/h 16 km/h 93% 5.41 mm 0.00 W/m2
21:44 25.0 °C 24.0 °C 1009.5 hPa South 12 km/h 12 km/h 93% 7.19 mm 0.00 W/m2
21:49 25.0 °C 24.0 °C 1009.5 hPa South 9 km/h 12 km/h 93% 7.19 mm 0.00 W/m2
21:54 25.0 °C 24.0 °C 1009.5 hPa SSE 10 km/h 12 km/h 93% 7.19 mm 0.00 W/m2
21:59 25.0 °C 24.0 °C 1009.7 hPa SE 6 km/h 12 km/h 94% 5.41 mm 0.00 W/m2
22:04 26.0 °C 24.0 °C 1009.7 hPa South 8 km/h 8 km/h 94% 5.41 mm 0.00 W/m2
22:09 26.0 °C 24.0 °C 1009.6 hPa Calm     94% 3.61 mm 0.00 W/m2
22:14 26.0 °C 25.0 °C 1009.8 hPa Calm     94% 3.61 mm 0.00 W/m2
22:19 26.0 °C 25.0 °C 1009.6 hPa Calm     94% 1.80 mm 0.00 W/m2
22:24 26.0 °C 25.0 °C 1009.6 hPa South 3 km/h 4 km/h 94% 3.61 mm 0.00 W/m2
22:34 26.0 °C 24.0 °C 1009.6 hPa SSE 4 km/h 4 km/h 94% 10.80 mm 0.00 W/m2
22:39 26.0 °C 25.0 °C 1009.3 hPa SSE 4 km/h 4 km/h 95% 10.80 mm 0.00 W/m2
22:44 26.0 °C 25.0 °C 1009.4 hPa SSE 2 km/h 4 km/h 95% 10.80 mm 0.00 W/m2
22:49 26.0 °C 25.0 °C 1009.3 hPa South 5 km/h 8 km/h 95% 10.80 mm 0.00 W/m2
22:54 26.0 °C 25.0 °C 1009.3 hPa South 10 km/h 12 km/h 95% 10.80 mm 0.00 W/m2
22:59 25.0 °C 25.0 °C 1009.3 hPa South 4 km/h 4 km/h 95% 10.80 mm 0.00 W/m2
23:04 25.0 °C 25.0 °C 1009.3 hPa SE 6 km/h 8 km/h 95% 10.80 mm 0.00 W/m2
23:09 25.0 °C 25.0 °C 1009.3 hPa SSE 9 km/h 12 km/h 95% 12.60 mm 0.00 W/m2
23:14 25.0 °C 25.0 °C 1009.3 hPa South 17 km/h 20 km/h 95% 12.60 mm 0.00 W/m2
23:19 25.0 °C 25.0 °C 1009.3 hPa SSW 15 km/h 16 km/h 95% 14.40 mm 0.00 W/m2
23:24 25.0 °C 24.0 °C 1009.2 hPa SSW 10 km/h 12 km/h 95% 14.40 mm 0.00 W/m2
23:29 25.0 °C 25.0 °C 1009.3 hPa SSW 8 km/h 8 km/h 95% 12.60 mm 0.00 W/m2
23:34 25.0 °C 24.0 °C 1009.4 hPa SSW 15 km/h 20 km/h 94% 10.80 mm 0.00 W/m2
23:39 25.0 °C 24.0 °C 1009.4 hPa SSW 11 km/h 12 km/h 94% 10.80 mm 0.00 W/m2
23:44 25.0 °C 24.0 °C 1009.3 hPa SSW 7 km/h 12 km/h 95% 10.80 mm 0.00 W/m2
23:49 25.0 °C 24.0 °C 1009.3 hPa SW 7 km/h 12 km/h 95% 10.80 mm 0.00 W/m2
23:54 25.0 °C 24.0 °C 1009.3 hPa SW 8 km/h 12 km/h 94% 8.99 mm 0.00 W/m2
23:59 25.0 °C 24.0 °C 1009.1 hPa WSW 6 km/h 8 km/h 94% 10.80 mm 0.00 W/m2
PIMOHWEATHER Philippines
Compliments of Weather Underground - 2 mb